Terminal Aerodrome Forecast
Issued by NWS Wilmington, OH

Current Version | Previous Version | Text Only | Print | Product List | Glossary Off
Versions: 1 2 3 4 5 6 7 8 9 10 11 12 13 14 15 16 17 18 19 20 21 22 23 24 25

000
FTUS41 KILN 020500
TAFCMH
TAF
KCMH 020539Z 0206/0306 30013KT P6SM OVC015
      TEMPO 0206/0207 5SM BR
     FM021000 30008KT P6SM SCT020
     FM030000 03003KT P6SM SCT025 BKN120
     FM030300 09003KT P6SM SCT025 BKN120=

USA.gov is the U.S. government's official web portal to all federal, state and local government web resources and services.